Time;durP1;ratioP1;P1;durP2;ratioP2;P2;SDS_P1;SDS_P2;PMS_P1;PMS_P2;Temp;Humidity;BMP_temperature;BMP_pressure;BME280_temperature;BME280_humidity;BME280_pressure;Samples;Min_cycle;Max_cycle;Signal;HPM_P1;HPM_P2
2021/05/12 00:00:06;;;;;;;21.90;14.30;;;;;;;15.65;66.77;100755.81;5043630;28;20038;-62
2021/05/12 00:02:32;;;;;;;24.08;14.27;;;;;;;15.86;65.03;100759.63;5043569;28;20037;-62
2021/05/12 00:04:57;;;;;;;21.58;14.15;;;;;;;15.88;65.40;100761.31;5043410;28;20025;-61
2021/05/12 00:07:23;;;;;;;17.05;13.82;;;;;;;15.95;63.93;100771.63;5049416;28;20029;-62
2021/05/12 00:09:49;;;;;;;24.05;14.88;;;;;;;15.78;66.45;100765.03;5063295;28;20029;-61
2021/05/12 00:12:15;;;;;;;23.55;14.55;;;;;;;15.53;68.41;100770.00;5063504;28;20029;-66
2021/05/12 00:14:41;;;;;;;18.77;14.50;;;;;;;15.41;68.59;100767.72;5039982;28;670337;-63
2021/05/12 00:17:09;;;;;;;20.83;14.82;;;;;;;15.38;68.89;100765.16;5059618;28;20285;-62
2021/05/12 00:19:37;;;;;;;18.92;14.07;;;;;;;15.25;69.31;100775.03;5044302;28;20038;-62
2021/05/12 00:24:38;;;;;;;21.48;14.98;;;;;;;15.13;69.72;100773.56;5044280;28;20079;-62
2021/05/12 00:27:04;;;;;;;19.27;15.07;;;;;;;15.11;70.60;100767.53;5048060;28;20228;-62
2021/05/12 00:29:30;;;;;;;19.20;14.43;;;;;;;15.07;70.49;100771.09;5064041;28;20033;-62
2021/05/12 00:31:55;;;;;;;20.50;14.65;;;;;;;15.10;70.40;100773.63;5063974;28;20039;-62
2021/05/12 00:34:21;;;;;;;18.95;14.05;;;;;;;15.31;68.31;100761.84;5045639;28;20049;-61
2021/05/12 00:36:47;;;;;;;22.65;15.25;;;;;;;15.32;68.48;100766.16;5043901;28;20036;-62
2021/05/12 00:39:12;;;;;;;20.63;14.48;;;;;;;15.41;68.50;100765.94;5043951;28;20028;-62
2021/05/12 00:41:40;;;;;;;23.02;15.07;;;;;;;15.44;68.35;100772.84;5043775;28;20025;-63
2021/05/12 00:44:14;;;;;;;17.60;13.68;;;;;;;15.54;66.05;100779.56;5043012;28;20021;-62
2021/05/12 00:46:50;;;;;;;20.73;14.55;;;;;;;15.39;69.46;100774.72;5043871;28;20349;-62
2021/05/12 00:49:16;;;;;;;18.95;13.55;;;;;;;15.41;67.28;100770.31;5063760;28;20036;-62
2021/05/12 00:51:42;;;;;;;21.95;15.02;;;;;;;15.37;67.76;100766.91;5063653;28;20202;-62
2021/05/12 00:54:08;;;;;;;20.95;15.07;;;;;;;15.29;69.33;100763.63;5063659;28;20029;-63
2021/05/12 00:56:39;;;;;;;23.48;15.65;;;;;;;14.96;70.44;100740.03;5063614;28;20027;-63
2021/05/12 00:59:06;;;;;;;20.43;15.70;;;;;;;15.10;70.58;100771.03;5023808;28;20028;-63
2021/05/12 01:01:32;;;;;;;23.30;15.40;;;;;;;15.08;70.53;100773.66;5024032;28;20056;-64
2021/05/12 01:03:58;;;;;;;21.67;15.07;;;;;;;15.08;70.47;100771.06;5043712;28;20030;-64
2021/05/12 01:06:27;;;;;;;25.23;15.38;;;;;;;14.76;70.44;100720.44;5042707;28;20032;-63
2021/05/12 01:08:53;;;;;;;21.45;13.88;;;;;;;15.23;69.05;100767.22;5055745;28;20206;-63
2021/05/12 01:11:19;;;;;;;21.95;14.48;;;;;;;15.12;69.42;100771.84;5043441;28;20037;-62
2021/05/12 01:13:45;;;;;;;16.98;13.18;;;;;;;15.08;69.87;100775.41;5043147;28;20203;-62
2021/05/12 01:16:11;;;;;;;22.15;14.23;;;;;;;15.18;68.17;100764.72;5042967;28;20107;-62
2021/05/12 01:18:38;;;;;;;22.67;14.52;;;;;;;15.04;70.15;100763.34;5058767;28;20032;-63
2021/05/12 01:21:07;;;;;;;22.05;14.13;;;;;;;14.97;70.12;100758.25;5062919;28;20028;-62
2021/05/12 01:23:38;;;;;;;20.15;15.02;;;;;;;14.76;69.90;100714.38;5063017;28;20033;-61
2021/05/12 01:26:16;;;;;;;19.10;14.73;;;;;;;15.10;69.21;100766.66;5062913;28;20055;-62
2021/05/12 01:28:44;;;;;;;24.05;15.25;;;;;;;14.50;71.72;100721.00;5046773;28;20025;-62
2021/05/12 01:31:30;;;;;;;19.33;14.32;;;;;;;14.60;71.00;100719.91;5043263;28;20097;-64
2021/05/12 01:33:57;;;;;;;19.58;14.77;;;;;;;14.89;70.57;100777.56;5042874;28;20326;-64
2021/05/12 01:36:24;;;;;;;22.02;15.38;;;;;;;14.95;69.53;100778.31;5042946;28;20064;-63
2021/05/12 01:38:50;;;;;;;25.80;15.25;;;;;;;15.00;68.48;100773.81;5059835;28;20325;-64
2021/05/12 01:41:18;;;;;;;22.60;14.40;;;;;;;15.01;69.71;100772.94;5062641;28;20067;-63
2021/05/12 01:43:43;;;;;;;16.70;14.32;;;;;;;14.99;69.52;100774.75;5062761;28;20041;-63
2021/05/12 01:46:10;;;;;;;19.15;15.57;;;;;;;14.87;70.66;100780.22;5062882;28;20036;-63
2021/05/12 01:48:36;;;;;;;19.38;15.50;;;;;;;14.80;71.24;100781.25;5047884;28;20032;-63
2021/05/12 01:51:04;;;;;;;19.88;15.55;;;;;;;14.58;70.61;100726.91;5042869;28;20033;-61
2021/05/12 01:53:30;;;;;;;21.38;16.05;;;;;;;14.92;70.56;100788.81;5042601;28;20080;-61
2021/05/12 01:55:55;;;;;;;19.13;14.68;;;;;;;14.96;70.11;100790.47;5042495;28;20366;-60
2021/05/12 01:58:23;;;;;;;21.30;15.35;;;;;;;15.01;70.46;100795.56;5055237;28;20028;-61
2021/05/12 02:00:58;;;;;;;19.25;14.82;;;;;;;15.01;69.42;100783.38;5062536;28;20021;-61
2021/05/12 02:03:25;;;;;;;22.15;15.75;;;;;;;14.91;70.37;100781.88;5046433;28;20052;-61
2021/05/12 02:05:53;;;;;;;23.58;16.02;;;;;;;14.70;70.14;100740.59;5042431;28;20025;-61
2021/05/12 02:08:21;;;;;;;22.05;15.60;;;;;;;15.07;69.77;100798.03;5054315;28;20036;-61
2021/05/12 02:10:50;;;;;;;18.58;15.05;;;;;;;15.05;69.87;100791.13;5062328;28;20336;-62
2021/05/12 02:13:16;;;;;;;22.13;16.67;;;;;;;15.05;70.40;100801.56;5062284;28;20106;-62
2021/05/12 02:15:44;;;;;;;23.17;15.95;;;;;;;15.12;70.35;100798.81;5062168;28;20199;-63
2021/05/12 02:18:11;;;;;;;20.98;15.65;;;;;;;15.14;69.22;100788.34;5051706;28;20029;-63
2021/05/12 02:20:38;;;;;;;16.65;14.93;;;;;;;15.12;69.46;100790.09;5042306;28;20057;-62
2021/05/12 02:23:08;;;;;;;20.02;15.60;;;;;;;15.10;69.41;100771.88;5042295;28;20052;-62
2021/05/12 02:25:35;;;;;;;18.10;15.35;;;;;;;15.09;70.12;100782.34;5042405;28;20040;-62
2021/05/12 02:28:01;;;;;;;22.88;15.93;;;;;;;15.15;70.16;100783.06;5051162;28;20305;-63
2021/05/12 02:30:27;;;;;;;19.25;15.57;;;;;;;15.28;69.30;100786.25;5062401;28;20036;-62
2021/05/12 02:32:55;;;;;;;23.33;17.40;;;;;;;15.42;69.31;100783.34;5062098;28;20048;-61
2021/05/12 02:35:22;;;;;;;17.42;15.52;;;;;;;15.66;67.75;100786.22;5062022;28;20036;-61
2021/05/12 02:37:48;;;;;;;18.35;15.88;;;;;;;15.81;68.13;100785.03;5054768;28;20037;-61
2021/05/12 02:40:16;;;;;;;19.10;14.77;;;;;;;15.90;67.54;100782.19;5042147;28;20310;-61
2021/05/12 02:42:42;;;;;;;22.45;16.75;;;;;;;15.89;67.95;100790.94;5042065;28;20318;-61
2021/05/12 02:45:10;;;;;;;19.33;14.18;;;;;;;16.08;67.26;100780.00;5042144;28;20041;-61
2021/05/12 02:47:36;;;;;;;21.23;15.93;;;;;;;16.05;67.73;100783.53;5047170;28;20032;-62
2021/05/12 02:50:05;;;;;;;19.20;15.63;;;;;;;15.61;68.07;100728.91;5062026;28;20226;-63
2021/05/12 02:52:31;;;;;;;21.85;15.40;;;;;;;15.83;68.25;100780.63;5061889;28;20033;-62
2021/05/12 02:54:57;;;;;;;19.42;15.20;;;;;;;15.96;67.58;100775.94;5061984;28;20205;-61
2021/05/12 02:57:23;;;;;;;21.70;15.38;;;;;;;15.75;68.03;100783.41;5058675;28;20363;-62
2021/05/12 02:59:50;;;;;;;17.90;14.77;;;;;;;15.80;67.47;100780.69;5042081;28;20026;-60
2021/05/12 03:02:16;;;;;;;22.20;15.27;;;;;;;15.88;67.40;100783.97;5041888;28;20413;-61
2021/05/12 03:04:42;;;;;;;19.73;16.05;;;;;;;15.58;68.90;100782.97;5041876;28;20036;-61
2021/05/12 03:07:08;;;;;;;16.67;13.40;;;;;;;15.58;68.49;100778.59;5044984;28;20021;-62
2021/05/12 03:09:35;;;;;;;23.35;13.50;;;;;;;15.60;68.24;100778.56;5065484;28;20033;-61
2021/05/12 03:12:01;;;;;;;18.63;13.57;;;;;;;15.77;67.68;100781.59;5065604;28;20025;-61
2021/05/12 03:14:29;;;;;;;19.20;12.07;;;;;;;15.69;66.95;100787.03;5065296;28;20047;-61
2021/05/12 03:16:55;;;;;;;16.10;11.63;;;;;;;15.54;67.74;100803.06;5065398;28;20029;-61
2021/05/12 03:19:26;;;;;;;20.33;11.07;;;;;;;15.41;67.96;100817.31;5046188;28;20072;-60
2021/05/12 03:21:56;;;;;;;14.48;11.23;;;;;;;15.31;68.68;100801.84;5045281;28;20049;-60
2021/05/12 03:24:22;;;;;;;20.10;12.07;;;;;;;15.58;68.35;100804.72;5045176;28;20207;-61
2021/05/12 03:26:48;;;;;;;18.73;12.75;;;;;;;15.70;67.58;100793.97;5045245;28;20021;-60
2021/05/12 03:29:14;;;;;;;15.43;10.95;;;;;;;15.59;67.86;100796.00;5062845;28;20064;-60
2021/05/12 03:31:40;;;;;;;16.42;10.68;;;;;;;15.68;66.73;100787.91;5065165;28;20308;-60
2021/05/12 03:34:06;;;;;;;15.45;11.23;;;;;;;15.87;66.44;100805.78;5064839;28;20031;-60
2021/05/12 03:36:32;;;;;;;15.48;11.30;;;;;;;15.96;66.40;100799.44;5064959;28;20037;-60
2021/05/12 03:38:58;;;;;;;17.63;10.20;;;;;;;15.99;65.91;100797.63;5043687;28;20064;-60
2021/05/12 03:41:24;;;;;;;17.40;10.45;;;;;;;16.03;65.65;100799.28;5040248;28;20348;-63
2021/05/12 03:43:49;;;;;;;17.35;9.90;;;;;;;16.09;65.77;100805.22;5025994;28;20026;-64
2021/05/12 03:46:15;;;;;;;14.75;10.02;;;;;;;16.14;65.30;100803.34;5024974;28;20208;-64
2021/05/12 03:48:41;;;;;;;16.63;10.68;;;;;;;16.12;65.48;100802.50;5050405;28;20051;-63
2021/05/12 03:51:07;;;;;;;15.02;9.70;;;;;;;16.16;65.76;100806.75;5064613;28;20060;-63
2021/05/12 03:53:32;;;;;;;15.25;10.10;;;;;;;16.17;66.26;100806.72;5064895;28;20033;-63
2021/05/12 03:55:58;;;;;;;20.48;11.38;;;;;;;16.11;66.46;100804.28;5064748;28;20079;-64
2021/05/12 03:58:24;;;;;;;18.98;10.13;;;;;;;16.14;65.63;100801.59;5053145;28;20075;-63
2021/05/12 04:00:50;;;;;;;14.15;9.25;;;;;;;16.09;66.41;100810.44;5044570;28;20060;-58
2021/05/12 04:03:17;;;;;;;18.98;10.85;;;;;;;16.04;66.17;100806.19;5044035;28;20092;-59
2021/05/12 04:05:43;;;;;;;17.80;10.50;;;;;;;16.10;65.74;100797.31;5044182;28;20048;-59
2021/05/12 04:08:08;;;;;;;14.85;9.60;;;;;;;16.16;65.45;100793.69;5051936;28;20298;-59
2021/05/12 04:10:34;;;;;;;20.80;9.93;;;;;;;16.17;65.18;100798.03;5064129;28;20044;-59
2021/05/12 04:13:00;;;;;;;16.48;11.15;;;;;;;16.16;65.39;100791.97;5064134;28;20309;-60
2021/05/12 04:15:27;;;;;;;15.82;10.38;;;;;;;16.01;65.93;100797.59;5063689;28;20043;-60
2021/05/12 04:17:52;;;;;;;16.92;10.27;;;;;;;16.08;65.92;100799.13;5057488;28;20029;-60
2021/05/12 04:20:20;;;;;;;12.05;9.07;;;;;;;15.71;66.51;100753.03;5043951;28;20032;-60
2021/05/12 04:22:47;;;;;;;19.13;11.15;;;;;;;16.01;66.23;100798.44;5043990;28;20247;-61
2021/05/12 04:25:17;;;;;;;16.17;10.10;;;;;;;15.42;66.33;100753.75;5043981;28;20087;-61
2021/05/12 04:27:43;;;;;;;20.13;11.18;;;;;;;15.62;67.38;100802.88;5047767;28;20029;-60
2021/05/12 04:30:12;;;;;;;15.60;10.15;;;;;;;15.55;67.07;100796.94;5062950;28;20025;-60
2021/05/12 04:32:39;;;;;;;20.40;10.82;;;;;;;15.26;67.68;100750.66;5061879;28;20336;-59
2021/05/12 04:35:07;;;;;;;12.73;9.32;;;;;;;15.68;67.07;100795.75;5062058;28;20031;-60
2021/05/12 04:37:33;;;;;;;22.40;10.20;;;;;;;15.83;66.59;100804.13;5059986;28;20383;-60
2021/05/12 04:39:59;;;;;;;18.77;10.38;;;;;;;15.92;66.76;100798.69;5041967;28;20033;-61
2021/05/12 04:42:25;;;;;;;17.55;10.45;;;;;;;15.96;66.41;100792.50;5041835;28;20039;-59
2021/05/12 04:44:52;;;;;;;18.67;10.52;;;;;;;15.99;66.77;100788.91;5042135;28;20052;-60
2021/05/12 04:47:19;;;;;;;16.13;10.48;;;;;;;16.08;66.56;100787.84;5043508;28;20021;-59
2021/05/12 04:49:46;;;;;;;20.90;11.48;;;;;;;16.03;66.35;100787.94;5023188;28;20270;-59
2021/05/12 04:52:13;;;;;;;24.80;10.82;;;;;;;16.12;65.51;100798.16;5023486;28;20029;-59
2021/05/12 04:54:38;;;;;;;20.25;11.23;;;;;;;16.08;65.92;100791.28;5023741;28;20345;-59
2021/05/12 04:57:05;;;;;;;25.50;11.30;;;;;;;16.15;65.57;100792.00;5023601;28;20033;-59
2021/05/12 04:59:30;;;;;;;20.33;11.90;;;;;;;15.91;66.16;100780.44;5058813;28;20314;-59
2021/05/12 05:01:57;;;;;;;22.73;11.68;;;;;;;16.08;65.93;100793.06;5059170;28;20089;-60
2021/05/12 05:04:24;;;;;;;23.55;11.65;;;;;;;16.11;65.58;100787.75;5043039;28;20029;-59
2021/05/12 05:06:49;;;;;;;16.00;10.40;;;;;;;16.17;65.82;100787.59;5043258;28;20025;-60
2021/05/12 05:09:15;;;;;;;22.85;12.00;;;;;;;16.09;66.50;100802.59;5051537;28;20191;-61
2021/05/12 05:11:41;;;;;;;23.15;12.82;;;;;;;16.17;65.63;100796.25;5042725;28;20333;-59
2021/05/12 05:14:07;;;;;;;23.85;13.15;;;;;;;16.04;66.27;100793.13;5042940;28;20245;-59
2021/05/12 05:16:33;;;;;;;18.85;12.00;;;;;;;16.17;65.14;100791.03;5042346;28;20048;-58
2021/05/12 05:18:59;;;;;;;22.33;12.70;;;;;;;16.22;65.15;100793.56;5042008;28;20257;-60
2021/05/12 05:21:26;;;;;;;30.83;12.75;;;;;;;16.17;65.82;100793.66;5042168;28;20036;-59
2021/05/12 05:23:54;;;;;;;25.17;13.63;;;;;;;15.83;66.25;100744.03;5042141;28;20031;-59
2021/05/12 05:26:20;;;;;;;29.30;16.05;;;;;;;16.13;66.28;100783.31;5041972;28;20033;-58
2021/05/12 05:28:46;;;;;;;19.63;13.50;;;;;;;16.27;65.69;100786.44;5041640;28;20071;-59
2021/05/12 05:31:12;;;;;;;20.98;12.98;;;;;;;16.24;65.91;100785.66;5042319;28;20029;-59
2021/05/12 05:33:37;;;;;;;19.67;13.30;;;;;;;16.27;65.71;100790.81;5042705;28;20101;-60
2021/05/12 05:36:03;;;;;;;23.58;13.38;;;;;;;16.17;66.70;100792.81;5042429;28;20083;-59
2021/05/12 05:38:29;;;;;;;25.02;14.48;;;;;;;16.23;66.43;100787.41;5050677;28;20033;-59
2021/05/12 05:40:55;;;;;;;20.60;13.13;;;;;;;16.36;65.98;100774.84;5062588;28;20253;-58
2021/05/12 05:43:20;;;;;;;24.27;14.75;;;;;;;16.49;66.09;100778.84;5062564;28;20032;-59
2021/05/12 05:45:46;;;;;;;27.02;16.58;;;;;;;16.43;66.27;100778.16;5046327;28;20024;-58
2021/05/12 05:48:12;;;;;;;25.05;16.30;;;;;;;16.43;66.40;100772.94;5048348;28;20055;-58
2021/05/12 05:50:38;;;;;;;22.55;15.90;;;;;;;16.49;65.42;100765.78;5062410;28;20032;-59
2021/05/12 05:53:04;;;;;;;22.40;15.70;;;;;;;16.53;65.56;100763.91;5062214;28;20025;-59
2021/05/12 05:55:30;;;;;;;29.80;18.02;;;;;;;16.50;65.78;100767.50;5061141;28;20096;-58
2021/05/12 05:57:56;;;;;;;28.80;18.60;;;;;;;16.48;66.02;100768.44;5058759;28;20040;-59
2021/05/12 06:00:22;;;;;;;28.77;19.38;;;;;;;16.50;66.04;100764.88;5042322;28;20226;-58
2021/05/12 06:02:48;;;;;;;32.20;19.75;;;;;;;16.54;65.73;100756.03;5042111;28;20030;-59
2021/05/12 06:05:14;;;;;;;33.67;22.55;;;;;;;16.41;66.98;100759.06;5042123;28;20029;-58
2021/05/12 06:07:40;;;;;;;28.65;19.05;;;;;;;16.31;66.77;100755.84;5042306;28;20311;-58
2021/05/12 06:10:08;;;;;;;27.65;18.27;;;;;;;16.36;66.45;100748.72;5042254;28;20364;-59
2021/05/12 06:12:34;;;;;;;25.85;18.02;;;;;;;16.46;66.26;100751.91;5074152;28;20029;-58
2021/05/12 06:15:00;;;;;;;28.92;16.88;;;;;;;16.45;65.89;100737.16;5042130;28;20370;-58
2021/05/12 06:17:27;;;;;;;25.30;16.42;;;;;;;16.48;66.19;100756.22;5042180;28;20022;-59
2021/05/12 06:19:54;;;;;;;29.23;16.65;;;;;;;16.56;66.39;100761.25;5060256;28;20032;-58
2021/05/12 06:22:19;;;;;;;30.80;17.08;;;;;;;16.59;65.99;100761.16;5062066;28;20029;-60
2021/05/12 06:24:46;;;;;;;28.63;17.65;;;;;;;16.54;66.54;100761.25;5062169;28;20367;-59
2021/05/12 06:27:12;;;;;;;31.33;17.25;;;;;;;16.61;66.06;100761.94;5062069;28;20104;-58
2021/05/12 06:29:38;;;;;;;26.42;16.45;;;;;;;16.64;65.94;100764.47;5045277;28;20052;-58
2021/05/12 06:32:06;;;;;;;26.02;17.05;;;;;;;16.66;65.49;100760.06;5040509;28;20366;-59
2021/05/12 06:34:33;;;;;;;22.65;16.35;;;;;;;16.71;65.95;100757.31;5042310;28;20029;-59
2021/05/12 06:36:59;;;;;;;29.63;17.08;;;;;;;16.77;65.86;100758.88;5042027;28;20037;-58
2021/05/12 06:39:25;;;;;;;28.30;17.23;;;;;;;16.81;66.01;100753.50;5056669;28;20048;-59
2021/05/12 06:41:52;;;;;;;23.17;16.80;;;;;;;16.86;65.38;100750.75;5043866;28;20234;-59
2021/05/12 06:44:18;;;;;;;25.23;17.00;;;;;;;16.93;65.08;100751.44;5045801;28;20060;-59
2021/05/12 06:46:44;;;;;;;29.13;19.42;;;;;;;16.93;65.81;100746.22;5045751;28;20041;-58
2021/05/12 06:49:09;;;;;;;30.65;19.13;;;;;;;16.91;65.93;100741.88;5057987;28;20294;-58
2021/05/12 06:51:36;;;;;;;30.88;18.08;;;;;;;16.88;65.72;100746.38;5065610;28;20063;-58
2021/05/12 06:54:02;;;;;;;26.52;17.27;;;;;;;16.90;65.11;100731.47;5065778;28;20029;-58
2021/05/12 06:56:27;;;;;;;35.28;18.00;;;;;;;16.98;65.35;100734.72;5057251;28;20064;-59
2021/05/12 06:58:53;;;;;;;25.65;16.92;;;;;;;17.07;66.07;100737.06;5045681;28;20052;-59
2021/05/12 07:01:20;;;;;;;26.55;17.42;;;;;;;17.08;66.72;100732.66;5045529;28;20028;-59
2021/05/12 07:03:46;;;;;;;33.97;20.25;;;;;;;17.02;67.07;100731.09;5045768;28;20048;-59
2021/05/12 07:06:12;;;;;;;27.50;18.27;;;;;;;17.07;65.32;100712.63;5045719;28;20021;-58
2021/05/12 07:08:38;;;;;;;26.90;17.40;;;;;;;17.14;64.89;100708.06;5045240;28;20092;-58
2021/05/12 07:11:05;;;;;;;27.80;17.95;;;;;;;17.13;65.48;100707.22;5045644;28;20032;-59
2021/05/12 07:13:30;;;;;;;23.33;16.75;;;;;;;17.18;65.39;100712.28;5045200;28;20109;-59
2021/05/12 07:15:56;;;;;;;33.90;19.33;;;;;;;17.03;65.46;100695.28;5045150;28;20306;-59
2021/05/12 07:18:22;;;;;;;27.90;18.05;;;;;;;17.20;64.50;100695.63;5045123;28;20401;-59
2021/05/12 07:20:48;;;;;;;34.38;19.73;;;;;;;17.25;64.23;100692.84;5043869;28;20384;-59
2021/05/12 07:23:21;;;;;;;32.08;19.58;;;;;;;17.26;64.16;100689.34;5044306;28;20092;-59
2021/05/12 07:25:48;;;;;;;30.48;20.00;;;;;;;17.15;64.43;100675.75;5043264;28;20029;-59
2021/05/12 07:28:15;;;;;;;31.73;21.25;;;;;;;17.17;64.39;100679.16;5046034;28;20021;-58
2021/05/12 07:30:42;;;;;;;32.13;20.13;;;;;;;17.25;64.54;100679.75;5044405;28;20159;-59
2021/05/12 07:33:08;;;;;;;33.05;19.65;;;;;;;17.36;64.32;100666.31;5043423;28;20230;-60
2021/05/12 07:35:33;;;;;;;31.17;18.88;;;;;;;17.49;63.85;100664.16;5044144;28;20021;-61
2021/05/12 07:37:59;;;;;;;38.85;19.85;;;;;;;17.56;63.86;100658.63;5044083;28;20208;-60
2021/05/12 07:40:25;;;;;;;32.00;18.75;;;;;;;17.59;63.72;100642.78;5044475;28;20029;-60
2021/05/12 07:42:52;;;;;;;40.65;20.60;;;;;;;17.66;64.12;100650.44;5043896;28;20029;-60
2021/05/12 07:45:18;;;;;;;36.40;19.67;;;;;;;17.78;63.53;100652.63;5044487;28;20218;-59
2021/05/12 07:47:44;;;;;;;32.65;17.45;;;;;;;17.85;61.78;100648.03;5044821;28;20304;-59
2021/05/12 07:50:11;;;;;;;22.25;15.98;;;;;;;18.09;61.53;100638.44;5063797;28;20021;-59
2021/05/12 07:52:37;;;;;;;31.13;16.42;;;;;;;18.26;61.35;100627.31;5064292;28;20056;-58
2021/05/12 07:55:04;;;;;;;28.27;17.20;;;;;;;18.51;60.18;100615.88;5064368;28;20089;-59
2021/05/12 07:57:30;;;;;;;29.02;15.95;;;;;;;18.38;59.76;100618.13;5064269;28;20036;-58
2021/05/12 07:59:56;;;;;;;26.50;15.85;;;;;;;18.52;60.09;100618.44;5047219;28;20029;-60
2021/05/12 08:02:21;;;;;;;29.17;17.00;;;;;;;18.39;59.38;100623.28;5044365;28;20071;-59
2021/05/12 08:04:47;;;;;;;28.05;16.00;;;;;;;18.66;58.87;100622.28;5044451;28;20030;-59
2021/05/12 08:07:13;;;;;;;23.92;15.18;;;;;;;18.73;59.51;100623.75;5044267;28;20018;-59
2021/05/12 08:09:39;;;;;;;23.42;15.85;;;;;;;18.95;58.21;100619.38;5058729;28;20032;-58
2021/05/12 08:12:05;;;;;;;26.77;15.52;;;;;;;19.14;58.30;100608.09;5063846;28;20024;-59
2021/05/12 08:14:31;;;;;;;24.60;15.20;;;;;;;19.21;57.54;100606.03;5052468;28;20076;-59
2021/05/12 08:16:56;;;;;;;24.30;15.77;;;;;;;19.46;58.10;100603.22;5044311;28;20326;-59
2021/05/12 08:19:22;;;;;;;22.35;15.52;;;;;;;19.55;57.04;100600.19;5043913;28;20226;-59
2021/05/12 08:21:48;;;;;;;17.42;14.63;;;;;;;19.67;56.51;100596.16;5042731;28;20029;-59
2021/05/12 08:24:14;;;;;;;23.85;15.75;;;;;;;19.36;57.44;100597.50;5043812;28;20029;-58
2021/05/12 08:26:40;;;;;;;24.85;15.45;;;;;;;19.42;56.80;100591.97;5043926;28;20089;-59
2021/05/12 08:29:07;;;;;;;25.52;15.63;;;;;;;19.47;56.62;100589.16;5053385;28;20279;-59
2021/05/12 08:31:33;;;;;;;28.63;15.75;;;;;;;19.44;56.73;100578.81;5063850;28;20056;-59
2021/05/12 08:34:03;;;;;;;24.95;15.98;;;;;;;19.40;56.45;100585.94;5050006;28;20028;-58
2021/05/12 08:36:28;;;;;;;23.15;15.75;;;;;;;19.44;57.30;100578.81;5043484;28;20314;-58
2021/05/12 08:38:54;;;;;;;24.83;16.05;;;;;;;19.31;57.18;100587.22;5043091;28;20081;-59
2021/05/12 08:41:20;;;;;;;22.30;15.57;;;;;;;19.30;56.44;100582.03;5042791;28;20028;-59
2021/05/12 08:43:46;;;;;;;20.83;15.85;;;;;;;19.28;56.86;100570.72;5042903;28;20080;-59
2021/05/12 08:46:14;;;;;;;23.48;15.98;;;;;;;19.17;57.48;100567.69;5042340;28;20045;-58
2021/05/12 08:48:41;;;;;;;23.83;16.00;;;;;;;19.31;57.38;100566.19;5045264;28;20065;-59
2021/05/12 08:51:08;;;;;;;20.17;16.15;;;;;;;19.39;57.52;100560.59;5043114;28;20037;-60
2021/05/12 08:53:35;;;;;;;21.55;15.27;;;;;;;19.52;57.63;100550.38;5043406;28;20048;-59
2021/05/12 08:56:02;;;;;;;24.60;14.65;;;;;;;19.62;57.28;100548.22;5043442;28;20252;-58
2021/05/12 08:58:28;;;;;;;23.83;15.43;;;;;;;19.52;56.27;100549.56;5043046;28;20025;-59
2021/05/12 09:00:55;;;;;;;26.13;15.82;;;;;;;19.73;56.03;100543.31;5042786;28;20032;-59
2021/05/12 09:03:21;;;;;;;21.05;14.30;;;;;;;19.94;56.10;100540.66;5042341;28;20029;-59
2021/05/12 09:05:48;;;;;;;21.40;14.68;;;;;;;20.25;55.31;100520.78;5043060;28;20205;-59
2021/05/12 09:08:15;;;;;;;21.05;14.60;;;;;;;20.25;55.68;100526.91;5042757;28;20093;-59
2021/05/12 09:10:41;;;;;;;27.88;15.55;;;;;;;20.43;54.55;100525.16;5042984;28;20033;-60
2021/05/12 09:13:07;;;;;;;24.42;14.25;;;;;;;20.52;54.22;100511.56;5042150;28;20025;-58
2021/05/12 09:15:34;;;;;;;20.48;15.13;;;;;;;20.58;54.61;100504.25;5042322;28;20038;-59
2021/05/12 09:18:05;;;;;;;18.45;14.95;;;;;;;20.72;54.63;100509.72;5042754;28;20029;-58
2021/05/12 09:20:39;;;;;;;22.48;13.40;;;;;;;21.04;54.29;100494.91;5061511;28;20025;-59
2021/05/12 09:23:16;;;;;;;21.00;13.63;;;;;;;20.74;53.05;100447.31;5062722;28;20084;-59
2021/05/12 09:25:53;;;;;;;19.77;13.80;;;;;;;20.71;54.23;100434.31;5062726;28;20036;-60
2021/05/12 09:28:20;;;;;;;25.23;13.93;;;;;;;21.05;55.42;100464.16;5061217;28;20269;-59
2021/05/12 09:31:04;;;;;;;20.83;12.88;;;;;;;21.04;53.66;100462.44;5041618;28;20040;-59
2021/05/12 09:33:32;;;;;;;17.95;13.27;;;;;;;20.94;53.65;100441.00;5042597;28;20088;-59
2021/05/12 09:35:59;;;;;;;20.17;13.95;;;;;;;21.04;54.56;100436.94;5042047;28;20064;-59
2021/05/12 09:38:27;;;;;;;22.30;13.32;;;;;;;20.84;53.68;100387.97;5037418;28;20095;-58
2021/05/12 09:41:03;;;;;;;13.57;11.98;;;;;;;21.07;53.45;100385.91;5038586;28;20021;-59
2021/05/12 09:43:30;;;;;;;17.85;12.63;;;;;;;21.39;53.91;100420.16;5038424;28;20041;-59
2021/05/12 09:46:17;;;;;;;18.00;12.60;;;;;;;21.37;54.02;100411.50;5037703;28;20254;-59
2021/05/12 09:48:48;;;;;;;25.55;12.85;;;;;;;21.40;53.65;100419.25;5039781;28;21018;-58
2021/05/12 09:51:20;;;;;;;17.55;12.38;;;;;;;21.38;52.88;100400.88;5035428;28;20111;-59
2021/05/12 09:54:03;;;;;;;20.58;12.98;;;;;;;21.41;53.16;100396.41;5038523;28;20139;-59
2021/05/12 09:57:00;;;;;;;17.55;11.80;;;;;;;21.52;51.95;100386.97;5036288;28;20029;-60
2021/05/12 09:59:30;;;;;;;13.77;11.30;;;;;;;21.58;52.71;100383.16;5035432;28;20033;-59
2021/05/12 10:01:58;;;;;;;16.25;11.57;;;;;;;21.62;52.20;100378.53;5037748;28;20051;-59
2021/05/12 10:04:38;;;;;;;18.25;11.23;;;;;;;21.61;52.09;100368.94;5040250;28;20021;-59
2021/05/12 10:07:16;;;;;;;17.67;11.93;;;;;;;21.87;52.02;100363.00;5041532;28;20056;-60
2021/05/12 10:09:43;;;;;;;13.57;11.55;;;;;;;22.04;52.37;100355.91;5040239;28;20092;-59
2021/05/12 10:12:16;;;;;;;14.20;10.85;;;;;;;21.87;51.78;100334.00;5041630;28;20068;-59
2021/05/12 10:14:45;;;;;;;16.70;10.93;;;;;;;21.94;50.67;100313.41;5041521;28;20048;-60
2021/05/12 10:17:14;;;;;;;13.52;10.52;;;;;;;22.48;50.90;100328.69;5026682;28;20052;-60
2021/05/12 10:19:42;;;;;;;11.57;10.45;;;;;;;22.57;49.80;100320.22;5048474;28;20037;-59
2021/05/12 10:22:09;;;;;;;12.90;10.23;;;;;;;22.66;50.05;100318.81;5045905;28;20314;-59
2021/05/12 10:24:37;;;;;;;15.63;10.07;;;;;;;22.60;48.76;100307.75;5046032;28;20035;-59
2021/05/12 10:27:14;;;;;;;14.77;9.88;;;;;;;22.32;48.68;100262.78;5044301;28;20276;-59
2021/05/12 10:29:43;;;;;;;11.77;9.63;;;;;;;22.52;47.92;100269.50;5046271;28;20025;-58
2021/05/12 10:32:24;;;;;;;10.63;9.52;;;;;;;22.87;48.25;100297.25;5044827;28;20140;-60
2021/05/12 10:35:07;;;;;;;11.60;9.27;;;;;;;23.17;47.89;100291.00;5044726;28;20092;-59
2021/05/12 10:37:36;;;;;;;13.23;9.63;;;;;;;23.14;46.77;100272.72;5046086;28;20034;-59
2021/05/12 10:40:20;;;;;;;10.68;9.52;;;;;;;23.27;46.93;100282.41;5050008;28;20025;-59
2021/05/12 10:43:10;;;;;;;13.80;8.93;;;;;;;23.44;46.97;100268.06;5044582;28;20037;-60
2021/05/12 10:45:40;;;;;;;12.10;9.00;;;;;;;23.55;46.63;100262.06;5045970;28;20048;-59
2021/05/12 10:48:06;;;;;;;14.95;9.43;;;;;;;23.58;45.73;100255.72;5045391;28;20026;-59
2021/05/12 10:50:50;;;;;;;13.77;8.85;;;;;;;23.60;45.38;100199.13;5051527;28;20195;-59
2021/05/12 10:53:21;;;;;;;9.43;8.20;;;;;;;23.59;44.65;100237.09;5045753;28;20063;-59
2021/05/12 10:55:59;;;;;;;12.18;7.55;;;;;;;23.80;43.92;100241.91;5045584;28;20030;-59
2021/05/12 10:58:29;;;;;;;12.07;7.10;;;;;;;23.60;42.67;100185.91;5045690;28;20025;-58
2021/05/12 11:00:57;;;;;;;8.60;6.35;;;;;;;23.49;41.39;100185.78;5053830;28;20040;-60
2021/05/12 11:03:46;;;;;;;8.80;6.30;;;;;;;23.96;42.00;100217.94;5044812;28;20396;-59
2021/05/12 11:06:12;;;;;;;9.93;6.63;;;;;;;23.93;41.16;100218.16;5044680;28;20112;-59
2021/05/12 11:09:17;;;;;;;7.70;5.72;;;;;;;23.91;40.27;100212.09;5046449;28;20037;-60
2021/05/12 11:11:46;;;;;;;13.98;6.50;;;;;;;24.08;40.37;100192.41;5050700;28;20298;-59
2021/05/12 11:14:17;;;;;;;9.32;5.75;;;;;;;24.18;40.26;100196.09;5043633;28;20030;-60